sensor_id;sensor_type;location;lat;lon;timestamp;temperature;humidity
1994;DHT22;998;49.906;10.908;2022-12-07T00:00:55;4.10;99.90
1994;DHT22;998;49.906;10.908;2022-12-07T00:03:22;4.10;99.90
1994;DHT22;998;49.906;10.908;2022-12-07T00:05:50;4.10;99.90
1994;DHT22;998;49.906;10.908;2022-12-07T00:08:17;4.10;99.90
1994;DHT22;998;49.906;10.908;2022-12-07T00:10:44;4.10;99.90
1994;DHT22;998;49.906;10.908;2022-12-07T00:13:12;4.10;99.90
1994;DHT22;998;49.906;10.908;2022-12-07T00:15:41;4.10;99.90
1994;DHT22;998;49.906;10.908;2022-12-07T00:18:08;4.10;99.90
1994;DHT22;998;49.906;10.908;2022-12-07T00:20:35;4.10;99.90
1994;DHT22;998;49.906;10.908;2022-12-07T00:23:03;4.10;99.90
1994;DHT22;998;49.906;10.908;2022-12-07T00:25:30;4.00;99.90
1994;DHT22;998;49.906;10.908;2022-12-07T00:27:58;4.10;99.90
1994;DHT22;998;49.906;10.908;2022-12-07T00:30:25;4.10;99.90
1994;DHT22;998;49.906;10.908;2022-12-07T00:32:54;4.10;99.90
1994;DHT22;998;49.906;10.908;2022-12-07T00:35:22;4.10;99.90
1994;DHT22;998;49.906;10.908;2022-12-07T00:37:49;4.10;99.90
1994;DHT22;998;49.906;10.908;2022-12-07T00:40:16;4.10;99.90
1994;DHT22;998;49.906;10.908;2022-12-07T00:42:44;4.10;99.90
1994;DHT22;998;49.906;10.908;2022-12-07T00:45:11;4.10;99.90
1994;DHT22;998;49.906;10.908;2022-12-07T00:47:39;4.10;99.90
1994;DHT22;998;49.906;10.908;2022-12-07T00:50:08;4.10;99.90
1994;DHT22;998;49.906;10.908;2022-12-07T00:52:36;4.00;99.90
1994;DHT22;998;49.906;10.908;2022-12-07T00:55:04;4.00;99.90
1994;DHT22;998;49.906;10.908;2022-12-07T00:57:31;4.10;99.90
1994;DHT22;998;49.906;10.908;2022-12-07T00:59:59;4.10;99.90
1994;DHT22;998;49.906;10.908;2022-12-07T01:02:26;4.00;99.90
1994;DHT22;998;49.906;10.908;2022-12-07T01:04:54;4.00;99.90
1994;DHT22;998;49.906;10.908;2022-12-07T01:07:22;4.00;99.90
1994;DHT22;998;49.906;10.908;2022-12-07T01:09:50;4.00;99.90
1994;DHT22;998;49.906;10.908;2022-12-07T01:12:17;4.00;99.90
1994;DHT22;998;49.906;10.908;2022-12-07T01:14:45;4.00;99.90
1994;DHT22;998;49.906;10.908;2022-12-07T01:17:12;3.90;99.90
1994;DHT22;998;49.906;10.908;2022-12-07T01:19:39;4.00;99.90
1994;DHT22;998;49.906;10.908;2022-12-07T01:22:07;4.00;99.90
1994;DHT22;998;49.906;10.908;2022-12-07T01:24:35;4.00;99.90
1994;DHT22;998;49.906;10.908;2022-12-07T01:27:03;4.00;99.90
1994;DHT22;998;49.906;10.908;2022-12-07T01:29:30;4.00;99.90
1994;DHT22;998;49.906;10.908;2022-12-07T01:31:58;4.00;99.90
1994;DHT22;998;49.906;10.908;2022-12-07T01:34:25;3.90;99.90
1994;DHT22;998;49.906;10.908;2022-12-07T01:36:52;3.90;99.90
1994;DHT22;998;49.906;10.908;2022-12-07T01:39:20;3.90;99.90
1994;DHT22;998;49.906;10.908;2022-12-07T01:41:48;3.80;99.90
1994;DHT22;998;49.906;10.908;2022-12-07T01:44:21;3.70;99.90
1994;DHT22;998;49.906;10.908;2022-12-07T01:46:50;3.70;99.90
1994;DHT22;998;49.906;10.908;2022-12-07T01:49:24;3.70;99.90
1994;DHT22;998;49.906;10.908;2022-12-07T01:52:00;3.70;99.90
1994;DHT22;998;49.906;10.908;2022-12-07T01:54:28;3.80;99.90
1994;DHT22;998;49.906;10.908;2022-12-07T01:56:57;3.80;99.90
1994;DHT22;998;49.906;10.908;2022-12-07T01:59:25;3.80;99.90
1994;DHT22;998;49.906;10.908;2022-12-07T02:01:54;3.80;99.90
1994;DHT22;998;49.906;10.908;2022-12-07T02:04:22;3.80;99.90
1994;DHT22;998;49.906;10.908;2022-12-07T02:06:50;3.70;99.90
1994;DHT22;998;49.906;10.908;2022-12-07T02:09:18;3.60;99.90
1994;DHT22;998;49.906;10.908;2022-12-07T02:11:46;3.70;99.90
1994;DHT22;998;49.906;10.908;2022-12-07T02:14:15;3.60;99.90
1994;DHT22;998;49.906;10.908;2022-12-07T02:16:51;3.70;99.90
1994;DHT22;998;49.906;10.908;2022-12-07T02:19:40;3.70;99.90
1994;DHT22;998;49.906;10.908;2022-12-07T02:22:24;3.80;99.90
1994;DHT22;998;49.906;10.908;2022-12-07T02:25:03;3.80;99.90
1994;DHT22;998;49.906;10.908;2022-12-07T02:27:39;3.80;99.90
1994;DHT22;998;49.906;10.908;2022-12-07T02:30:12;3.80;99.90
1994;DHT22;998;49.906;10.908;2022-12-07T02:32:44;3.90;99.90
1994;DHT22;998;49.906;10.908;2022-12-07T02:35:18;3.90;99.90
1994;DHT22;998;49.906;10.908;2022-12-07T02:37:57;3.90;99.90
1994;DHT22;998;49.906;10.908;2022-12-07T02:40:31;3.90;99.90
1994;DHT22;998;49.906;10.908;2022-12-07T02:43:03;3.90;99.90
1994;DHT22;998;49.906;10.908;2022-12-07T02:45:34;3.80;99.90
1994;DHT22;998;49.906;10.908;2022-12-07T02:48:02;3.90;99.90
1994;DHT22;998;49.906;10.908;2022-12-07T02:50:31;3.80;99.90
1994;DHT22;998;49.906;10.908;2022-12-07T02:52:58;3.80;99.90
1994;DHT22;998;49.906;10.908;2022-12-07T02:55:29;3.70;99.90
1994;DHT22;998;49.906;10.908;2022-12-07T02:58:05;3.50;99.90
1994;DHT22;998;49.906;10.908;2022-12-07T03:00:42;3.40;99.90
1994;DHT22;998;49.906;10.908;2022-12-07T03:03:12;3.40;99.90
1994;DHT22;998;49.906;10.908;2022-12-07T03:05:50;3.40;99.90
1994;DHT22;998;49.906;10.908;2022-12-07T03:08:26;3.40;99.90
1994;DHT22;998;49.906;10.908;2022-12-07T03:10:59;3.50;99.90
1994;DHT22;998;49.906;10.908;2022-12-07T03:13:30;3.50;99.90
1994;DHT22;998;49.906;10.908;2022-12-07T03:16:07;3.40;99.90
1994;DHT22;998;49.906;10.908;2022-12-07T03:18:38;3.40;99.90
1994;DHT22;998;49.906;10.908;2022-12-07T03:21:11;3.30;99.90
1994;DHT22;998;49.906;10.908;2022-12-07T03:23:42;3.30;99.90
1994;DHT22;998;49.906;10.908;2022-12-07T03:26:13;3.40;99.90
1994;DHT22;998;49.906;10.908;2022-12-07T03:28:44;3.40;99.90
1994;DHT22;998;49.906;10.908;2022-12-07T03:31:18;3.30;99.90
1994;DHT22;998;49.906;10.908;2022-12-07T03:33:51;3.30;99.90
1994;DHT22;998;49.906;10.908;2022-12-07T03:36:23;3.30;99.90
1994;DHT22;998;49.906;10.908;2022-12-07T03:38:57;3.20;99.90
1994;DHT22;998;49.906;10.908;2022-12-07T03:41:29;3.20;99.90
1994;DHT22;998;49.906;10.908;2022-12-07T03:43:59;3.30;99.90
1994;DHT22;998;49.906;10.908;2022-12-07T03:46:35;3.30;99.90
1994;DHT22;998;49.906;10.908;2022-12-07T03:49:08;3.40;99.90
1994;DHT22;998;49.906;10.908;2022-12-07T03:51:40;3.30;99.90
1994;DHT22;998;49.906;10.908;2022-12-07T03:54:13;3.30;99.90
1994;DHT22;998;49.906;10.908;2022-12-07T03:56:43;3.30;99.90
1994;DHT22;998;49.906;10.908;2022-12-07T03:59:11;3.40;99.90
1994;DHT22;998;49.906;10.908;2022-12-07T04:01:43;3.40;99.90
1994;DHT22;998;49.906;10.908;2022-12-07T04:04:10;3.40;99.90
1994;DHT22;998;49.906;10.908;2022-12-07T04:06:38;3.40;99.90
1994;DHT22;998;49.906;10.908;2022-12-07T04:09:05;3.50;99.90
1994;DHT22;998;49.906;10.908;2022-12-07T04:11:33;3.50;99.90
1994;DHT22;998;49.906;10.908;2022-12-07T04:14:00;3.60;99.90
1994;DHT22;998;49.906;10.908;2022-12-07T04:16:56;3.60;99.90
1994;DHT22;998;49.906;10.908;2022-12-07T04:19:25;3.60;99.90
1994;DHT22;998;49.906;10.908;2022-12-07T04:21:53;3.60;99.90
1994;DHT22;998;49.906;10.908;2022-12-07T04:24:21;3.60;99.90
1994;DHT22;998;49.906;10.908;2022-12-07T04:26:48;3.60;99.90
1994;DHT22;998;49.906;10.908;2022-12-07T04:29:16;3.60;99.90
1994;DHT22;998;49.906;10.908;2022-12-07T04:31:44;3.50;99.90
1994;DHT22;998;49.906;10.908;2022-12-07T04:34:16;3.50;99.90
1994;DHT22;998;49.906;10.908;2022-12-07T04:36:44;3.60;99.90
1994;DHT22;998;49.906;10.908;2022-12-07T04:39:18;3.60;99.90
1994;DHT22;998;49.906;10.908;2022-12-07T04:41:46;3.40;99.90
1994;DHT22;998;49.906;10.908;2022-12-07T04:44:14;3.40;99.90
1994;DHT22;998;49.906;10.908;2022-12-07T04:46:42;3.50;99.90
1994;DHT22;998;49.906;10.908;2022-12-07T04:49:10;3.50;99.90
1994;DHT22;998;49.906;10.908;2022-12-07T04:51:40;3.50;99.90
1994;DHT22;998;49.906;10.908;2022-12-07T04:54:08;3.40;99.90
1994;DHT22;998;49.906;10.908;2022-12-07T04:56:35;3.40;99.90
1994;DHT22;998;49.906;10.908;2022-12-07T04:59:03;3.30;99.90
1994;DHT22;998;49.906;10.908;2022-12-07T05:01:31;3.40;99.90
1994;DHT22;998;49.906;10.908;2022-12-07T05:03:58;3.40;99.90
1994;DHT22;998;49.906;10.908;2022-12-07T05:06:26;3.30;99.90
1994;DHT22;998;49.906;10.908;2022-12-07T05:08:55;3.40;99.90
1994;DHT22;998;49.906;10.908;2022-12-07T05:11:22;3.30;99.90
1994;DHT22;998;49.906;10.908;2022-12-07T05:14:08;3.40;99.90
1994;DHT22;998;49.906;10.908;2022-12-07T05:16:37;3.40;99.90
1994;DHT22;998;49.906;10.908;2022-12-07T05:19:05;3.30;99.90
1994;DHT22;998;49.906;10.908;2022-12-07T05:21:33;3.40;99.90
1994;DHT22;998;49.906;10.908;2022-12-07T05:24:02;3.40;99.90
1994;DHT22;998;49.906;10.908;2022-12-07T05:26:30;3.40;99.90
1994;DHT22;998;49.906;10.908;2022-12-07T05:28:57;3.40;99.90
1994;DHT22;998;49.906;10.908;2022-12-07T05:31:26;3.30;99.90
1994;DHT22;998;49.906;10.908;2022-12-07T05:33:54;3.30;99.90
1994;DHT22;998;49.906;10.908;2022-12-07T05:36:21;3.30;99.90
1994;DHT22;998;49.906;10.908;2022-12-07T05:38:49;3.30;99.90
1994;DHT22;998;49.906;10.908;2022-12-07T05:41:18;3.30;99.90
1994;DHT22;998;49.906;10.908;2022-12-07T05:44:03;3.30;99.90
1994;DHT22;998;49.906;10.908;2022-12-07T05:46:31;3.40;99.90
1994;DHT22;998;49.906;10.908;2022-12-07T05:48:58;3.30;99.90
1994;DHT22;998;49.906;10.908;2022-12-07T05:51:26;3.30;99.90
1994;DHT22;998;49.906;10.908;2022-12-07T05:53:53;3.20;99.90
1994;DHT22;998;49.906;10.908;2022-12-07T05:56:22;3.30;99.90
1994;DHT22;998;49.906;10.908;2022-12-07T05:58:50;3.30;99.90
1994;DHT22;998;49.906;10.908;2022-12-07T06:01:34;3.30;99.90
1994;DHT22;998;49.906;10.908;2022-12-07T06:04:02;3.30;99.90
1994;DHT22;998;49.906;10.908;2022-12-07T06:06:29;3.30;99.90
1994;DHT22;998;49.906;10.908;2022-12-07T06:08:57;3.30;99.90
1994;DHT22;998;49.906;10.908;2022-12-07T06:11:25;3.30;99.90
1994;DHT22;998;49.906;10.908;2022-12-07T06:14:10;3.20;99.90
1994;DHT22;998;49.906;10.908;2022-12-07T06:16:38;3.30;99.90
1994;DHT22;998;49.906;10.908;2022-12-07T06:19:05;3.30;99.90
1994;DHT22;998;49.906;10.908;2022-12-07T06:21:33;3.30;99.90
1994;DHT22;998;49.906;10.908;2022-12-07T06:24:00;3.30;99.90
1994;DHT22;998;49.906;10.908;2022-12-07T06:26:29;3.30;99.90
1994;DHT22;998;49.906;10.908;2022-12-07T06:28:56;3.40;99.90
1994;DHT22;998;49.906;10.908;2022-12-07T06:31:24;3.40;99.90
1994;DHT22;998;49.906;10.908;2022-12-07T06:33:51;3.40;99.90
1994;DHT22;998;49.906;10.908;2022-12-07T06:36:19;3.40;99.90
1994;DHT22;998;49.906;10.908;2022-12-07T06:38:46;3.50;99.90
1994;DHT22;998;49.906;10.908;2022-12-07T06:41:13;3.40;99.90
1994;DHT22;998;49.906;10.908;2022-12-07T06:43:42;3.50;99.90
1994;DHT22;998;49.906;10.908;2022-12-07T06:46:10;3.50;99.90
1994;DHT22;998;49.906;10.908;2022-12-07T06:48:37;3.50;99.90
1994;DHT22;998;49.906;10.908;2022-12-07T06:51:05;3.50;99.90
1994;DHT22;998;49.906;10.908;2022-12-07T06:53:32;3.50;99.90
1994;DHT22;998;49.906;10.908;2022-12-07T06:56:00;3.60;99.90
1994;DHT22;998;49.906;10.908;2022-12-07T06:58:27;3.50;99.90
1994;DHT22;998;49.906;10.908;2022-12-07T07:00:56;3.50;99.90
1994;DHT22;998;49.906;10.908;2022-12-07T07:03:24;3.50;99.90
1994;DHT22;998;49.906;10.908;2022-12-07T07:05:51;3.50;99.90
1994;DHT22;998;49.906;10.908;2022-12-07T07:08:18;3.50;99.90
1994;DHT22;998;49.906;10.908;2022-12-07T07:10:46;3.50;99.90
1994;DHT22;998;49.906;10.908;2022-12-07T07:13:13;3.60;99.90
1994;DHT22;998;49.906;10.908;2022-12-07T07:15:41;3.50;99.90
1994;DHT22;998;49.906;10.908;2022-12-07T07:18:10;3.60;99.90
1994;DHT22;998;49.906;10.908;2022-12-07T07:20:37;3.60;99.90
1994;DHT22;998;49.906;10.908;2022-12-07T07:23:05;3.50;99.90
1994;DHT22;998;49.906;10.908;2022-12-07T07:25:33;3.50;99.90
1994;DHT22;998;49.906;10.908;2022-12-07T07:28:01;3.60;99.90
1994;DHT22;998;49.906;10.908;2022-12-07T07:30:28;3.60;99.90
1994;DHT22;998;49.906;10.908;2022-12-07T07:32:56;3.60;99.90
1994;DHT22;998;49.906;10.908;2022-12-07T07:35:26;3.50;99.90
1994;DHT22;998;49.906;10.908;2022-12-07T07:37:54;3.50;99.90
1994;DHT22;998;49.906;10.908;2022-12-07T07:40:21;3.40;99.90
1994;DHT22;998;49.906;10.908;2022-12-07T07:42:49;3.50;99.90
1994;DHT22;998;49.906;10.908;2022-12-07T07:45:17;3.50;99.90
1994;DHT22;998;49.906;10.908;2022-12-07T07:47:45;3.50;99.90
1994;DHT22;998;49.906;10.908;2022-12-07T07:50:12;3.40;99.90
1994;DHT22;998;49.906;10.908;2022-12-07T07:52:42;3.40;99.90
1994;DHT22;998;49.906;10.908;2022-12-07T07:55:09;3.50;99.90
1994;DHT22;998;49.906;10.908;2022-12-07T07:57:37;3.50;99.90
1994;DHT22;998;49.906;10.908;2022-12-07T08:00:07;3.60;99.90
1994;DHT22;998;49.906;10.908;2022-12-07T08:02:35;3.60;99.90
1994;DHT22;998;49.906;10.908;2022-12-07T08:05:03;3.60;99.90
1994;DHT22;998;49.906;10.908;2022-12-07T08:07:31;3.60;99.90
1994;DHT22;998;49.906;10.908;2022-12-07T08:10:01;3.60;99.90
1994;DHT22;998;49.906;10.908;2022-12-07T08:12:28;3.60;99.90
1994;DHT22;998;49.906;10.908;2022-12-07T08:14:55;3.60;99.90
1994;DHT22;998;49.906;10.908;2022-12-07T08:17:23;3.60;99.90
1994;DHT22;998;49.906;10.908;2022-12-07T08:19:50;3.60;99.90
1994;DHT22;998;49.906;10.908;2022-12-07T08:22:17;3.60;99.90
1994;DHT22;998;49.906;10.908;2022-12-07T08:24:44;3.70;99.90
1994;DHT22;998;49.906;10.908;2022-12-07T08:27:12;3.70;99.90
1994;DHT22;998;49.906;10.908;2022-12-07T08:29:40;3.70;99.90
1994;DHT22;998;49.906;10.908;2022-12-07T08:32:07;3.70;99.90
1994;DHT22;998;49.906;10.908;2022-12-07T08:34:34;3.60;99.90
1994;DHT22;998;49.906;10.908;2022-12-07T08:37:02;3.70;99.90
1994;DHT22;998;49.906;10.908;2022-12-07T08:39:30;3.70;99.90
1994;DHT22;998;49.906;10.908;2022-12-07T08:41:57;3.70;99.90
1994;DHT22;998;49.906;10.908;2022-12-07T08:44:26;3.70;99.90
1994;DHT22;998;49.906;10.908;2022-12-07T08:46:57;3.70;99.90
1994;DHT22;998;49.906;10.908;2022-12-07T08:49:27;3.70;99.90
1994;DHT22;998;49.906;10.908;2022-12-07T08:51:57;3.70;99.90
1994;DHT22;998;49.906;10.908;2022-12-07T08:54:25;3.80;99.90
1994;DHT22;998;49.906;10.908;2022-12-07T08:56:53;3.80;99.90
1994;DHT22;998;49.906;10.908;2022-12-07T08:59:22;3.80;99.90
1994;DHT22;998;49.906;10.908;2022-12-07T09:01:52;3.90;99.90
1994;DHT22;998;49.906;10.908;2022-12-07T09:04:19;3.80;99.90
1994;DHT22;998;49.906;10.908;2022-12-07T09:06:47;3.90;99.90
1994;DHT22;998;49.906;10.908;2022-12-07T09:09:15;3.90;99.90
1994;DHT22;998;49.906;10.908;2022-12-07T09:11:42;3.90;99.90
1994;DHT22;998;49.906;10.908;2022-12-07T09:14:11;3.90;99.90
1994;DHT22;998;49.906;10.908;2022-12-07T09:16:38;3.90;99.90
1994;DHT22;998;49.906;10.908;2022-12-07T09:19:07;3.90;99.90
1994;DHT22;998;49.906;10.908;2022-12-07T09:21:35;3.90;99.90
1994;DHT22;998;49.906;10.908;2022-12-07T09:24:03;3.90;99.90
1994;DHT22;998;49.906;10.908;2022-12-07T09:26:30;4.00;99.90
1994;DHT22;998;49.906;10.908;2022-12-07T09:28:57;4.00;99.90
1994;DHT22;998;49.906;10.908;2022-12-07T09:31:25;4.00;99.90
1994;DHT22;998;49.906;10.908;2022-12-07T09:33:54;4.00;99.90
1994;DHT22;998;49.906;10.908;2022-12-07T09:36:23;4.00;99.90
1994;DHT22;998;49.906;10.908;2022-12-07T09:38:51;4.00;99.90
1994;DHT22;998;49.906;10.908;2022-12-07T09:41:19;4.00;99.90
1994;DHT22;998;49.906;10.908;2022-12-07T09:43:48;4.00;99.90
1994;DHT22;998;49.906;10.908;2022-12-07T09:46:18;4.00;99.90
1994;DHT22;998;49.906;10.908;2022-12-07T09:48:48;4.10;99.90
1994;DHT22;998;49.906;10.908;2022-12-07T09:51:18;4.00;99.90
1994;DHT22;998;49.906;10.908;2022-12-07T09:53:48;4.10;99.90
1994;DHT22;998;49.906;10.908;2022-12-07T09:56:17;4.10;99.90
1994;DHT22;998;49.906;10.908;2022-12-07T09:58:45;4.10;99.90
1994;DHT22;998;49.906;10.908;2022-12-07T10:01:15;4.00;99.90
1994;DHT22;998;49.906;10.908;2022-12-07T10:03:48;4.10;99.90
1994;DHT22;998;49.906;10.908;2022-12-07T10:06:16;4.10;99.90
1994;DHT22;998;49.906;10.908;2022-12-07T10:08:43;4.10;99.90
1994;DHT22;998;49.906;10.908;2022-12-07T10:11:12;4.10;99.90
1994;DHT22;998;49.906;10.908;2022-12-07T10:13:43;4.10;99.90
1994;DHT22;998;49.906;10.908;2022-12-07T10:16:38;4.10;99.90
1994;DHT22;998;49.906;10.908;2022-12-07T10:19:20;4.10;99.90
1994;DHT22;998;49.906;10.908;2022-12-07T10:22:10;4.10;99.90
1994;DHT22;998;49.906;10.908;2022-12-07T10:24:38;4.10;99.90
1994;DHT22;998;49.906;10.908;2022-12-07T10:27:19;4.10;99.90
1994;DHT22;998;49.906;10.908;2022-12-07T10:29:49;4.10;99.90
1994;DHT22;998;49.906;10.908;2022-12-07T10:32:32;4.10;99.90
1994;DHT22;998;49.906;10.908;2022-12-07T10:35:27;4.10;99.90
1994;DHT22;998;49.906;10.908;2022-12-07T10:37:57;4.10;99.90
1994;DHT22;998;49.906;10.908;2022-12-07T10:40:31;4.20;99.90
1994;DHT22;998;49.906;10.908;2022-12-07T10:43:12;4.20;99.90
1994;DHT22;998;49.906;10.908;2022-12-07T10:46:01;4.20;99.90
1994;DHT22;998;49.906;10.908;2022-12-07T10:48:37;4.20;99.90
1994;DHT22;998;49.906;10.908;2022-12-07T10:51:10;4.20;99.90
1994;DHT22;998;49.906;10.908;2022-12-07T10:53:50;4.20;99.90
1994;DHT22;998;49.906;10.908;2022-12-07T10:56:41;4.20;99.90
1994;DHT22;998;49.906;10.908;2022-12-07T10:59:38;4.20;99.90
1994;DHT22;998;49.906;10.908;2022-12-07T11:02:24;4.20;99.90
1994;DHT22;998;49.906;10.908;2022-12-07T11:05:02;4.30;99.90
1994;DHT22;998;49.906;10.908;2022-12-07T11:07:41;4.30;99.90
1994;DHT22;998;49.906;10.908;2022-12-07T11:10:14;4.30;99.90
1994;DHT22;998;49.906;10.908;2022-12-07T11:12:57;4.30;99.90
1994;DHT22;998;49.906;10.908;2022-12-07T11:15:36;4.40;99.90
1994;DHT22;998;49.906;10.908;2022-12-07T11:18:11;4.40;99.90
1994;DHT22;998;49.906;10.908;2022-12-07T11:20:44;4.40;99.90
1994;DHT22;998;49.906;10.908;2022-12-07T11:23:27;4.40;99.90
1994;DHT22;998;49.906;10.908;2022-12-07T11:26:04;4.40;99.90
1994;DHT22;998;49.906;10.908;2022-12-07T11:28:48;4.40;99.90
1994;DHT22;998;49.906;10.908;2022-12-07T11:31:28;4.40;99.90
1994;DHT22;998;49.906;10.908;2022-12-07T11:33:59;4.50;99.90
1994;DHT22;998;49.906;10.908;2022-12-07T11:36:36;4.50;99.90
1994;DHT22;998;49.906;10.908;2022-12-07T11:39:11;4.50;99.90
1994;DHT22;998;49.906;10.908;2022-12-07T11:41:42;4.50;99.90
1994;DHT22;998;49.906;10.908;2022-12-07T11:44:29;4.50;99.90
1994;DHT22;998;49.906;10.908;2022-12-07T11:47:05;4.50;99.90
1994;DHT22;998;49.906;10.908;2022-12-07T11:49:42;4.50;99.90
1994;DHT22;998;49.906;10.908;2022-12-07T11:52:20;4.50;99.90
1994;DHT22;998;49.906;10.908;2022-12-07T11:54:51;4.50;99.90
1994;DHT22;998;49.906;10.908;2022-12-07T11:57:24;4.50;99.90
1994;DHT22;998;49.906;10.908;2022-12-07T11:59:58;4.50;99.90
1994;DHT22;998;49.906;10.908;2022-12-07T12:02:32;4.50;99.90
1994;DHT22;998;49.906;10.908;2022-12-07T12:05:11;4.50;99.90
1994;DHT22;998;49.906;10.908;2022-12-07T12:07:41;4.50;99.90
1994;DHT22;998;49.906;10.908;2022-12-07T12:10:17;4.50;99.90
1994;DHT22;998;49.906;10.908;2022-12-07T12:13:07;4.40;99.90
1994;DHT22;998;49.906;10.908;2022-12-07T12:15:48;4.50;99.90
1994;DHT22;998;49.906;10.908;2022-12-07T12:18:39;4.50;99.90
1994;DHT22;998;49.906;10.908;2022-12-07T12:21:10;4.50;99.90
1994;DHT22;998;49.906;10.908;2022-12-07T12:23:42;4.50;99.90
1994;DHT22;998;49.906;10.908;2022-12-07T12:26:16;4.50;99.90
1994;DHT22;998;49.906;10.908;2022-12-07T12:28:52;4.50;99.90
1994;DHT22;998;49.906;10.908;2022-12-07T12:31:34;4.50;99.90
1994;DHT22;998;49.906;10.908;2022-12-07T12:34:29;4.60;99.90
1994;DHT22;998;49.906;10.908;2022-12-07T12:36:57;4.60;99.90
1994;DHT22;998;49.906;10.908;2022-12-07T12:39:25;4.50;99.90
1994;DHT22;998;49.906;10.908;2022-12-07T12:42:01;4.50;99.90
1994;DHT22;998;49.906;10.908;2022-12-07T12:44:42;4.60;99.90
1994;DHT22;998;49.906;10.908;2022-12-07T12:47:51;4.50;99.90
1994;DHT22;998;49.906;10.908;2022-12-07T12:50:24;4.60;99.90
1994;DHT22;998;49.906;10.908;2022-12-07T12:53:01;4.60;99.90
1994;DHT22;998;49.906;10.908;2022-12-07T12:55:52;4.60;99.90
1994;DHT22;998;49.906;10.908;2022-12-07T12:58:35;4.60;99.90
1994;DHT22;998;49.906;10.908;2022-12-07T13:01:40;4.60;99.90
1994;DHT22;998;49.906;10.908;2022-12-07T13:04:48;4.60;99.90
1994;DHT22;998;49.906;10.908;2022-12-07T13:10:43;4.60;99.90
1994;DHT22;998;49.906;10.908;2022-12-07T13:13:31;4.60;99.90
1994;DHT22;998;49.906;10.908;2022-12-07T13:22:53;4.70;99.90
1994;DHT22;998;49.906;10.908;2022-12-07T13:25:31;4.60;99.90
1994;DHT22;998;49.906;10.908;2022-12-07T13:28:10;4.70;99.90
1994;DHT22;998;49.906;10.908;2022-12-07T13:30:47;4.70;99.90
1994;DHT22;998;49.906;10.908;2022-12-07T13:33:17;4.70;99.90
1994;DHT22;998;49.906;10.908;2022-12-07T13:35:46;4.70;99.90
1994;DHT22;998;49.906;10.908;2022-12-07T13:38:24;4.70;99.90
1994;DHT22;998;49.906;10.908;2022-12-07T13:41:14;4.70;99.90
1994;DHT22;998;49.906;10.908;2022-12-07T13:43:49;4.70;99.90
1994;DHT22;998;49.906;10.908;2022-12-07T13:46:19;4.70;99.90
1994;DHT22;998;49.906;10.908;2022-12-07T13:48:48;4.70;99.90
1994;DHT22;998;49.906;10.908;2022-12-07T13:51:20;4.70;99.90
1994;DHT22;998;49.906;10.908;2022-12-07T13:53:49;4.80;99.90
1994;DHT22;998;49.906;10.908;2022-12-07T13:56:17;4.80;99.90
1994;DHT22;998;49.906;10.908;2022-12-07T13:58:46;4.80;99.90
1994;DHT22;998;49.906;10.908;2022-12-07T14:01:13;4.80;99.90
1994;DHT22;998;49.906;10.908;2022-12-07T14:03:41;4.80;99.90
1994;DHT22;998;49.906;10.908;2022-12-07T14:06:18;4.80;99.90
1994;DHT22;998;49.906;10.908;2022-12-07T14:08:46;4.90;99.90
1994;DHT22;998;49.906;10.908;2022-12-07T14:11:17;4.90;99.90
1994;DHT22;998;49.906;10.908;2022-12-07T14:13:55;4.80;99.90
1994;DHT22;998;49.906;10.908;2022-12-07T14:16:27;4.80;99.90
1994;DHT22;998;49.906;10.908;2022-12-07T14:18:56;4.80;99.90
1994;DHT22;998;49.906;10.908;2022-12-07T14:21:25;4.80;99.90
1994;DHT22;998;49.906;10.908;2022-12-07T14:24:15;4.80;99.90
1994;DHT22;998;49.906;10.908;2022-12-07T14:26:44;4.80;99.90
1994;DHT22;998;49.906;10.908;2022-12-07T14:29:30;4.80;99.90
1994;DHT22;998;49.906;10.908;2022-12-07T14:32:12;4.80;99.90
1994;DHT22;998;49.906;10.908;2022-12-07T14:34:53;4.80;99.90
1994;DHT22;998;49.906;10.908;2022-12-07T14:37:21;4.80;99.90
1994;DHT22;998;49.906;10.908;2022-12-07T14:39:48;4.80;99.90
1994;DHT22;998;49.906;10.908;2022-12-07T14:42:16;4.80;99.90
1994;DHT22;998;49.906;10.908;2022-12-07T14:44:44;4.80;99.90
1994;DHT22;998;49.906;10.908;2022-12-07T14:47:12;4.80;99.90
1994;DHT22;998;49.906;10.908;2022-12-07T14:49:39;4.80;99.90
1994;DHT22;998;49.906;10.908;2022-12-07T14:52:13;4.70;99.90
1994;DHT22;998;49.906;10.908;2022-12-07T14:54:41;4.60;99.90
1994;DHT22;998;49.906;10.908;2022-12-07T14:57:10;4.40;99.90
1994;DHT22;998;49.906;10.908;2022-12-07T14:59:38;4.30;99.90
1994;DHT22;998;49.906;10.908;2022-12-07T15:02:08;4.30;99.90
1994;DHT22;998;49.906;10.908;2022-12-07T15:04:36;4.20;99.90
1994;DHT22;998;49.906;10.908;2022-12-07T15:07:06;4.30;99.90
1994;DHT22;998;49.906;10.908;2022-12-07T15:09:33;4.20;99.90
1994;DHT22;998;49.906;10.908;2022-12-07T15:12:01;4.30;99.90
1994;DHT22;998;49.906;10.908;2022-12-07T15:14:28;4.20;99.90
1994;DHT22;998;49.906;10.908;2022-12-07T15:16:55;4.30;99.90
1994;DHT22;998;49.906;10.908;2022-12-07T15:19:24;4.30;99.90
1994;DHT22;998;49.906;10.908;2022-12-07T15:21:53;4.30;99.90
1994;DHT22;998;49.906;10.908;2022-12-07T15:24:20;4.30;99.90
1994;DHT22;998;49.906;10.908;2022-12-07T15:26:47;4.30;99.90
1994;DHT22;998;49.906;10.908;2022-12-07T15:29:14;4.20;99.90
1994;DHT22;998;49.906;10.908;2022-12-07T15:31:42;4.30;99.90
1994;DHT22;998;49.906;10.908;2022-12-07T15:34:11;4.20;99.90
1994;DHT22;998;49.906;10.908;2022-12-07T15:36:40;4.30;99.90
1994;DHT22;998;49.906;10.908;2022-12-07T15:39:08;4.30;99.90
1994;DHT22;998;49.906;10.908;2022-12-07T15:41:35;4.30;99.90
1994;DHT22;998;49.906;10.908;2022-12-07T15:44:03;4.30;99.90
1994;DHT22;998;49.906;10.908;2022-12-07T15:46:48;4.30;99.90
1994;DHT22;998;49.906;10.908;2022-12-07T15:49:17;4.30;99.90
1994;DHT22;998;49.906;10.908;2022-12-07T15:51:46;4.40;99.90
1994;DHT22;998;49.906;10.908;2022-12-07T15:54:18;4.30;99.90
1994;DHT22;998;49.906;10.908;2022-12-07T15:56:45;4.40;99.90
1994;DHT22;998;49.906;10.908;2022-12-07T15:59:13;4.40;99.90
1994;DHT22;998;49.906;10.908;2022-12-07T16:01:40;4.40;99.90
1994;DHT22;998;49.906;10.908;2022-12-07T16:04:08;4.40;99.90
1994;DHT22;998;49.906;10.908;2022-12-07T16:06:36;4.40;99.90
1994;DHT22;998;49.906;10.908;2022-12-07T16:09:05;4.40;99.90
1994;DHT22;998;49.906;10.908;2022-12-07T16:11:32;4.30;99.90
1994;DHT22;998;49.906;10.908;2022-12-07T16:14:00;4.30;99.90
1994;DHT22;998;49.906;10.908;2022-12-07T16:16:28;4.30;99.90
1994;DHT22;998;49.906;10.908;2022-12-07T16:18:55;4.30;99.90
1994;DHT22;998;49.906;10.908;2022-12-07T16:21:22;4.20;99.90
1994;DHT22;998;49.906;10.908;2022-12-07T16:23:50;4.30;99.90
1994;DHT22;998;49.906;10.908;2022-12-07T16:26:20;4.20;99.90
1994;DHT22;998;49.906;10.908;2022-12-07T16:28:49;4.20;99.90
1994;DHT22;998;49.906;10.908;2022-12-07T16:31:20;4.20;99.90
1994;DHT22;998;49.906;10.908;2022-12-07T16:33:48;4.20;99.90
1994;DHT22;998;49.906;10.908;2022-12-07T16:36:17;4.20;99.90
1994;DHT22;998;49.906;10.908;2022-12-07T16:38:44;4.20;99.90
1994;DHT22;998;49.906;10.908;2022-12-07T16:41:12;4.20;99.90
1994;DHT22;998;49.906;10.908;2022-12-07T16:43:41;4.20;99.90
1994;DHT22;998;49.906;10.908;2022-12-07T16:46:08;4.20;99.90
1994;DHT22;998;49.906;10.908;2022-12-07T16:48:36;4.20;99.90
1994;DHT22;998;49.906;10.908;2022-12-07T16:51:05;4.20;99.90
1994;DHT22;998;49.906;10.908;2022-12-07T16:53:34;4.20;99.90